Time;durP1;ratioP1;P1;durP2;ratioP2;P2;SDS_P1;SDS_P2;PMS_P1;PMS_P2;Temp;Humidity;BMP_temperature;BMP_pressure;BME280_temperature;BME280_humidity;BME280_pressure;Samples;Min_cycle;Max_cycle;Signal;HPM_P1;HPM_P2
2021/12/01 00:01:09;;;;;;;4.63;3.53;;;12.40;99.90;;;;;;4899464;29;20220;-33
2021/12/01 00:03:40;;;;;;;3.80;3.50;;;12.40;99.90;;;;;;4892299;29;20712;-33
2021/12/01 00:06:10;;;;;;;3.53;3.23;;;12.40;99.90;;;;;;4875688;29;20226;-33
2021/12/01 00:08:38;;;;;;;4.50;4.07;;;12.40;99.90;;;;;;4891179;29;20237;-34
2021/12/01 00:11:05;;;;;;;5.57;4.00;;;12.30;99.90;;;;;;4884876;29;20211;-34
2021/12/01 00:13:33;;;;;;;4.70;4.30;;;12.30;99.90;;;;;;4872949;29;20592;-33
2021/12/01 00:16:01;;;;;;;4.77;4.33;;;12.30;99.90;;;;;;4877719;29;20213;-33
2021/12/01 00:18:29;;;;;;;4.13;3.80;;;12.30;99.90;;;;;;4890983;29;20301;-34
2021/12/01 00:21:00;;;;;;;4.70;4.30;;;12.30;99.90;;;;;;4891468;29;20225;-34
2021/12/01 00:23:29;;;;;;;4.57;4.17;;;12.30;99.90;;;;;;4891722;29;20692;-33
2021/12/01 00:25:59;;;;;;;5.60;3.63;;;12.30;99.90;;;;;;4891558;29;20683;-33
2021/12/01 00:28:27;;;;;;;4.33;3.93;;;12.30;99.90;;;;;;4893332;29;20229;-33
2021/12/01 00:30:58;;;;;;;5.37;3.73;;;12.20;99.90;;;;;;4892642;29;20575;-34
2021/12/01 00:33:25;;;;;;;4.00;3.60;;;12.20;99.90;;;;;;4894827;29;20210;-33
2021/12/01 00:35:56;;;;;;;3.43;3.13;;;12.30;99.90;;;;;;4894024;29;20673;-33
2021/12/01 00:38:25;;;;;;;3.50;3.20;;;12.20;99.90;;;;;;4893772;29;20220;-33
2021/12/01 00:40:56;;;;;;;3.93;3.33;;;12.20;99.90;;;;;;4892183;29;20265;-33
2021/12/01 00:43:27;;;;;;;3.60;3.30;;;12.20;99.90;;;;;;4893616;29;20229;-33
2021/12/01 00:46:00;;;;;;;3.37;3.07;;;12.20;99.90;;;;;;4894964;29;20214;-33
2021/12/01 00:48:29;;;;;;;3.60;3.17;;;12.20;99.90;;;;;;4894287;29;20257;-34
2021/12/01 00:50:59;;;;;;;3.23;3.00;;;12.20;99.90;;;;;;4894439;29;20385;-34
2021/12/01 00:53:26;;;;;;;3.30;3.00;;;12.20;99.90;;;;;;4893604;29;20214;-34
2021/12/01 00:55:53;;;;;;;3.13;2.93;;;12.20;99.90;;;;;;4891721;29;20634;-34
2021/12/01 00:58:20;;;;;;;3.00;2.80;;;12.10;99.90;;;;;;4894040;29;20304;-33
2021/12/01 01:00:49;;;;;;;2.70;2.50;;;12.20;99.90;;;;;;4893032;29;20292;-34
2021/12/01 01:03:17;;;;;;;2.70;2.50;;;12.10;99.90;;;;;;4907091;29;20200;-33
2021/12/01 01:05:45;;;;;;;2.60;2.10;;;12.10;99.90;;;;;;4910410;29;20216;-34
2021/12/01 01:08:17;;;;;;;2.70;2.50;;;12.10;99.90;;;;;;4893522;29;20692;-33
2021/12/01 01:10:58;;;;;;;2.10;1.80;;;12.10;99.90;;;;;;4875616;29;20328;-34
2021/12/01 01:16:24;;;;;;;1.60;1.50;;;12.10;99.90;;;;;;4893285;29;20214;-35
2021/12/01 01:19:00;;;;;;;2.10;1.47;;;12.10;99.90;;;;;;4877494;29;20217;-34
2021/12/01 01:21:34;;;;;;;1.30;1.20;;;12.10;99.90;;;;;;4892876;29;20284;-34
2021/12/01 01:24:04;;;;;;;2.23;1.80;;;12.10;99.90;;;;;;4892809;29;20240;-34
2021/12/01 01:26:32;;;;;;;2.53;1.63;;;12.00;99.90;;;;;;4901737;29;20296;-33
2021/12/01 01:29:02;;;;;;;2.47;1.50;;;12.00;99.90;;;;;;4875414;29;20226;-35
2021/12/01 01:31:30;;;;;;;2.50;1.47;;;12.00;99.90;;;;;;4871617;29;20693;-34
2021/12/01 01:33:58;;;;;;;3.83;1.90;;;11.90;99.90;;;;;;4889358;29;20214;-34
2021/12/01 01:36:27;;;;;;;2.53;1.80;;;11.90;99.90;;;;;;4893765;29;20205;-34
2021/12/01 01:38:55;;;;;;;2.37;2.00;;;11.90;99.90;;;;;;4890253;29;20688;-34
2021/12/01 01:41:23;;;;;;;2.27;2.03;;;11.90;99.90;;;;;;4892463;29;20217;-34
2021/12/01 01:43:51;;;;;;;3.70;2.07;;;11.90;99.90;;;;;;4887059;29;20594;-35
2021/12/01 01:46:21;;;;;;;2.17;1.70;;;11.80;99.90;;;;;;4880700;29;20207;-34
2021/12/01 01:49:05;;;;;;;1.80;1.70;;;11.80;99.90;;;;;;4889110;29;20255;-34
2021/12/01 01:51:33;;;;;;;2.23;1.87;;;11.80;99.90;;;;;;4898490;29;20209;-34
2021/12/01 01:54:00;;;;;;;2.77;2.00;;;11.80;99.90;;;;;;4912487;29;20264;-35
2021/12/01 01:56:30;;;;;;;2.23;2.03;;;11.80;99.90;;;;;;4899175;29;20210;-33
2021/12/01 01:59:03;;;;;;;2.50;2.30;;;11.80;99.90;;;;;;4891639;29;20220;-34
2021/12/01 02:03:59;;;;;;;3.30;2.20;;;11.80;99.90;;;;;;4901126;29;20308;-35
2021/12/01 02:06:31;;;;;;;3.20;2.60;;;11.70;99.90;;;;;;4892184;29;20209;-34
2021/12/01 02:09:00;;;;;;;3.40;2.47;;;11.70;99.90;;;;;;4890654;29;20229;-35
2021/12/01 02:11:29;;;;;;;2.80;2.30;;;11.70;99.90;;;;;;4890813;29;20711;-35
2021/12/01 02:13:59;;;;;;;3.03;2.70;;;11.70;99.90;;;;;;4893922;29;20296;-36
2021/12/01 02:16:29;;;;;;;3.17;2.70;;;11.60;99.90;;;;;;4877000;29;20213;-33
2021/12/01 02:18:58;;;;;;;4.33;3.10;;;11.60;99.90;;;;;;4876593;29;20236;-34
2021/12/01 02:21:28;;;;;;;3.77;3.33;;;11.60;99.90;;;;;;4891923;29;20870;-35
2021/12/01 02:23:57;;;;;;;4.80;2.63;;;11.60;99.90;;;;;;4891222;29;20221;-35
2021/12/01 02:26:25;;;;;;;3.27;2.90;;;11.60;99.90;;;;;;4892049;29;20214;-34
2021/12/01 02:28:57;;;;;;;3.67;3.30;;;11.50;99.90;;;;;;4877047;29;20253;-34
2021/12/01 02:31:30;;;;;;;4.37;2.60;;;11.50;99.90;;;;;;4896154;29;20228;-33
2021/12/01 02:34:00;;;;;;;4.03;3.63;;;11.50;99.90;;;;;;4891692;29;20300;-35
2021/12/01 02:36:31;;;;;;;4.30;3.20;;;11.50;99.90;;;;;;4891701;29;20213;-34
2021/12/01 02:39:01;;;;;;;2.90;2.70;;;11.50;99.90;;;;;;4890985;29;20206;-34
2021/12/01 02:41:32;;;;;;;3.20;2.90;;;11.50;99.90;;;;;;4890117;29;20222;-34
2021/12/01 02:44:04;;;;;;;3.43;2.93;;;11.50;99.90;;;;;;4880448;29;20313;-34
2021/12/01 02:46:34;;;;;;;3.73;3.03;;;11.50;99.90;;;;;;4888561;29;20217;-28
2021/12/01 02:49:04;;;;;;;3.40;3.10;;;11.40;99.90;;;;;;4874480;29;20226;-30
2021/12/01 02:51:35;;;;;;;3.50;3.17;;;11.40;99.90;;;;;;4894136;29;20296;-29
2021/12/01 02:54:03;;;;;;;3.60;2.87;;;11.40;99.90;;;;;;4911612;29;20233;-29
2021/12/01 02:56:32;;;;;;;3.83;3.10;;;11.40;99.90;;;;;;4897794;29;20217;-30
2021/12/01 02:59:03;;;;;;;3.00;2.70;;;11.40;99.90;;;;;;4892608;29;20206;-31
2021/12/01 03:01:30;;;;;;;2.90;2.70;;;11.40;99.90;;;;;;4875794;29;20224;-30
2021/12/01 03:03:59;;;;;;;3.00;2.70;;;11.40;99.90;;;;;;4901647;29;20276;-30
2021/12/01 03:06:28;;;;;;;3.57;2.43;;;11.40;99.90;;;;;;4885359;29;20217;-35
2021/12/01 03:08:56;;;;;;;3.50;2.67;;;11.40;99.90;;;;;;4889537;29;20260;-35
2021/12/01 03:11:25;;;;;;;3.30;2.50;;;11.40;99.90;;;;;;4891608;29;20224;-35
2021/12/01 03:13:56;;;;;;;4.00;2.83;;;11.40;99.90;;;;;;4872953;29;20208;-35
2021/12/01 03:16:24;;;;;;;2.43;2.20;;;11.40;99.90;;;;;;4892066;29;20638;-35
2021/12/01 03:18:51;;;;;;;2.83;2.60;;;11.40;99.90;;;;;;4892415;29;20226;-35
2021/12/01 03:21:19;;;;;;;3.77;2.70;;;11.30;99.90;;;;;;4889901;29;20201;-35
2021/12/01 03:23:49;;;;;;;3.33;2.50;;;11.30;99.90;;;;;;4890840;29;20210;-34
2021/12/01 03:26:16;;;;;;;6.73;2.17;;;11.30;99.90;;;;;;4891275;29;20696;-36
2021/12/01 03:28:43;;;;;;;2.57;2.10;;;11.30;99.90;;;;;;4907285;29;20225;-35
2021/12/01 03:31:13;;;;;;;2.40;2.20;;;11.30;99.90;;;;;;4885404;29;20205;-35
2021/12/01 03:33:40;;;;;;;4.07;2.17;;;11.20;99.90;;;;;;4885379;29;20641;-34
2021/12/01 03:36:07;;;;;;;2.40;2.10;;;11.20;99.90;;;;;;4888685;29;20213;-35
2021/12/01 03:38:35;;;;;;;4.37;1.90;;;11.20;99.90;;;;;;4885546;29;20727;-35
2021/12/01 03:41:02;;;;;;;3.30;2.30;;;11.20;99.90;;;;;;4887677;29;20237;-35
2021/12/01 03:43:29;;;;;;;2.27;2.00;;;11.20;99.90;;;;;;4869538;29;20258;-35
2021/12/01 03:45:56;;;;;;;1.90;1.67;;;11.20;99.90;;;;;;4880012;29;20565;-34
2021/12/01 03:48:24;;;;;;;2.13;1.90;;;11.20;99.90;;;;;;4887095;29;20221;-36
2021/12/01 03:50:52;;;;;;;2.40;1.83;;;11.20;99.90;;;;;;4889011;29;20225;-35
2021/12/01 03:53:24;;;;;;;1.77;1.67;;;11.10;99.90;;;;;;4884568;29;20208;-36
2021/12/01 03:55:52;;;;;;;2.33;1.80;;;11.10;99.90;;;;;;4888404;29;20238;-36
2021/12/01 03:58:19;;;;;;;3.10;1.70;;;11.10;99.90;;;;;;4890294;29;20221;-35
2021/12/01 04:00:47;;;;;;;1.73;1.60;;;11.20;99.90;;;;;;4873489;29;20842;-35
2021/12/01 04:03:14;;;;;;;3.87;1.73;;;11.10;99.90;;;;;;4892546;29;20216;-35
2021/12/01 04:05:42;;;;;;;2.50;1.53;;;11.10;99.90;;;;;;4895352;29;20654;-35
2021/12/01 04:08:10;;;;;;;2.30;1.43;;;11.10;99.90;;;;;;4894125;29;20301;-35
2021/12/01 04:10:38;;;;;;;2.37;1.30;;;11.10;99.90;;;;;;4888410;29;20225;-35
2021/12/01 04:13:05;;;;;;;2.00;1.30;;;11.10;99.90;;;;;;4888121;29;20208;-34
2021/12/01 04:15:32;;;;;;;1.40;1.10;;;11.10;99.90;;;;;;4889934;29;20254;-34
2021/12/01 04:17:59;;;;;;;1.50;1.40;;;11.10;99.90;;;;;;4888798;29;20198;-35
2021/12/01 04:20:27;;;;;;;2.63;1.20;;;11.10;99.90;;;;;;4889171;29;20220;-35
2021/12/01 04:22:56;;;;;;;2.37;1.27;;;11.10;99.90;;;;;;4888814;29;20206;-35
2021/12/01 04:25:24;;;;;;;2.03;1.30;;;11.10;99.90;;;;;;4875776;29;21078;-34
2021/12/01 04:27:52;;;;;;;1.63;1.20;;;11.10;99.90;;;;;;4874500;29;20213;-35
2021/12/01 04:30:22;;;;;;;2.20;1.10;;;11.00;99.90;;;;;;4890166;29;20596;-36
2021/12/01 04:32:50;;;;;;;2.10;1.10;;;11.00;99.90;;;;;;4890018;29;20213;-36
2021/12/01 04:35:20;;;;;;;1.27;1.13;;;11.00;99.90;;;;;;4889109;29;20695;-34
2021/12/01 04:37:51;;;;;;;2.90;1.00;;;11.10;99.90;;;;;;4871538;29;20321;-36
2021/12/01 04:40:19;;;;;;;1.30;0.77;;;11.00;99.90;;;;;;4888084;29;20229;-34
2021/12/01 04:42:46;;;;;;;1.97;1.10;;;11.00;99.90;;;;;;4889056;29;20225;-35
2021/12/01 04:45:18;;;;;;;1.43;0.90;;;11.10;99.90;;;;;;4895960;29;20214;-36
2021/12/01 04:47:49;;;;;;;0.90;0.87;;;11.10;99.90;;;;;;4874946;29;20582;-35
2021/12/01 04:50:19;;;;;;;1.83;1.30;;;11.00;99.90;;;;;;4887959;29;20689;-36
2021/12/01 04:52:46;;;;;;;1.60;1.10;;;11.00;99.90;;;;;;4886658;29;20217;-36
2021/12/01 04:55:17;;;;;;;1.73;1.07;;;11.10;99.90;;;;;;4888386;29;20230;-35
2021/12/01 04:57:48;;;;;;;1.67;1.10;;;11.10;99.90;;;;;;4887029;29;20277;-35
2021/12/01 05:00:20;;;;;;;3.10;0.90;;;11.00;99.90;;;;;;4891074;29;20217;-36
2021/12/01 05:02:50;;;;;;;0.83;0.83;;;11.00;99.90;;;;;;4893746;29;20209;-35
2021/12/01 05:05:17;;;;;;;1.07;0.87;;;11.00;99.90;;;;;;4891650;29;20225;-35
2021/12/01 05:07:44;;;;;;;1.83;1.00;;;11.10;99.90;;;;;;4873046;29;20732;-34
2021/12/01 05:10:12;;;;;;;3.17;1.10;;;11.00;99.90;;;;;;4889210;29;20681;-34
2021/12/01 05:12:42;;;;;;;2.13;0.90;;;11.00;99.90;;;;;;4887502;29;20224;-36
2021/12/01 05:15:09;;;;;;;2.70;0.87;;;11.00;99.90;;;;;;4890471;29;20222;-36
2021/12/01 05:17:37;;;;;;;0.87;0.87;;;11.00;99.90;;;;;;4888090;29;20630;-35
2021/12/01 05:20:07;;;;;;;1.00;0.80;;;11.00;99.90;;;;;;4893732;29;20275;-33
2021/12/01 05:22:35;;;;;;;1.20;0.90;;;11.00;99.90;;;;;;4892538;29;20232;-34
2021/12/01 05:25:03;;;;;;;1.63;1.00;;;11.00;99.90;;;;;;4892352;29;20217;-35
2021/12/01 05:27:30;;;;;;;1.27;0.80;;;11.00;99.90;;;;;;4893417;29;20245;-35
2021/12/01 05:29:58;;;;;;;1.03;0.90;;;11.00;99.90;;;;;;4892626;29;20251;-35
2021/12/01 05:32:25;;;;;;;0.90;0.77;;;11.00;99.90;;;;;;4892919;29;20571;-35
2021/12/01 05:34:53;;;;;;;0.80;0.77;;;11.00;99.90;;;;;;4877980;29;20209;-34
2021/12/01 05:37:22;;;;;;;1.13;0.80;;;11.00;99.90;;;;;;4892070;29;20660;-35
2021/12/01 05:39:52;;;;;;;0.80;0.80;;;10.90;99.90;;;;;;4888428;29;20213;-34
2021/12/01 05:42:19;;;;;;;1.00;0.80;;;10.90;99.90;;;;;;4886756;29;20579;-35
2021/12/01 05:44:46;;;;;;;1.37;0.57;;;10.90;99.90;;;;;;4887559;29;20210;-34
2021/12/01 05:47:13;;;;;;;1.20;0.80;;;10.90;99.90;;;;;;4886663;29;20209;-35
2021/12/01 05:49:44;;;;;;;0.60;0.60;;;10.90;99.90;;;;;;4890615;29;20242;-35
2021/12/01 05:52:14;;;;;;;0.63;0.53;;;10.90;99.90;;;;;;4888286;29;20619;-35
2021/12/01 05:54:43;;;;;;;0.60;0.60;;;10.90;99.90;;;;;;4886687;29;20248;-35
2021/12/01 05:57:11;;;;;;;1.70;0.90;;;10.90;99.90;;;;;;4888080;29;20221;-34
2021/12/01 05:59:38;;;;;;;1.10;0.70;;;10.90;99.90;;;;;;4882759;29;20214;-34
2021/12/01 06:02:10;;;;;;;0.90;0.70;;;10.90;99.90;;;;;;4884831;29;20213;-35
2021/12/01 06:04:38;;;;;;;1.93;0.70;;;10.90;99.90;;;;;;4884313;29;20229;-35
2021/12/01 06:07:07;;;;;;;2.53;0.60;;;11.00;99.90;;;;;;4885968;29;20969;-35
2021/12/01 06:09:37;;;;;;;1.77;0.70;;;11.00;99.90;;;;;;4879877;29;20712;-35
2021/12/01 06:12:06;;;;;;;1.13;0.50;;;11.00;99.90;;;;;;4883624;29;20682;-34
2021/12/01 06:14:35;;;;;;;1.07;0.50;;;11.00;99.90;;;;;;4865797;29;20668;-35
2021/12/01 06:17:02;;;;;;;0.73;0.60;;;11.00;99.90;;;;;;4885208;29;20213;-34
2021/12/01 06:19:32;;;;;;;0.90;0.60;;;11.00;99.90;;;;;;4888598;29;20232;-35
2021/12/01 06:22:02;;;;;;;2.33;0.70;;;11.00;99.90;;;;;;4867018;29;20595;-28
2021/12/01 06:24:29;;;;;;;0.77;0.63;;;11.00;99.90;;;;;;4851188;29;20212;-30
2021/12/01 06:26:57;;;;;;;0.87;0.67;;;11.10;99.90;;;;;;4882683;29;20224;-28
2021/12/01 06:29:24;;;;;;;1.27;0.70;;;11.10;99.90;;;;;;4884956;29;20217;-29
2021/12/01 06:31:51;;;;;;;1.60;0.70;;;11.10;99.90;;;;;;4885300;29;20210;-28
2021/12/01 06:34:19;;;;;;;2.30;0.80;;;11.10;99.90;;;;;;4887639;29;20197;-29
2021/12/01 06:36:46;;;;;;;2.00;0.60;;;11.10;99.90;;;;;;4885638;29;20214;-30
2021/12/01 06:39:17;;;;;;;1.37;0.57;;;11.10;99.90;;;;;;4887668;29;20218;-30
2021/12/01 06:41:44;;;;;;;0.60;0.60;;;11.10;99.90;;;;;;4885243;29;20194;-29
2021/12/01 06:44:12;;;;;;;2.30;0.50;;;11.10;99.90;;;;;;4888931;29;20747;-29
2021/12/01 06:46:40;;;;;;;0.80;0.43;;;11.10;99.90;;;;;;4893264;29;20213;-29
2021/12/01 06:49:09;;;;;;;1.93;0.57;;;11.10;99.90;;;;;;4896202;29;20304;-30
2021/12/01 06:51:36;;;;;;;0.47;0.40;;;11.20;99.90;;;;;;4890628;29;20591;-28
2021/12/01 06:54:04;;;;;;;0.50;0.40;;;11.10;99.90;;;;;;4891798;29;20233;-28
2021/12/01 06:56:31;;;;;;;0.50;0.50;;;11.10;99.90;;;;;;4892054;29;20205;-29
2021/12/01 06:58:58;;;;;;;1.73;0.60;;;11.10;99.90;;;;;;4888042;29;20694;-30
2021/12/01 07:01:25;;;;;;;0.67;0.47;;;11.10;99.90;;;;;;4891574;29;20340;-29
2021/12/01 07:03:53;;;;;;;2.70;1.20;;;11.20;99.90;;;;;;4889838;29;20202;-30
2021/12/01 07:06:23;;;;;;;1.03;0.87;;;11.20;99.90;;;;;;4890410;29;20264;-28
2021/12/01 07:08:54;;;;;;;0.53;0.40;;;11.20;99.90;;;;;;4891569;29;20540;-29
2021/12/01 07:11:21;;;;;;;0.43;0.43;;;11.20;99.90;;;;;;4890974;29;20309;-29
2021/12/01 07:13:49;;;;;;;1.67;0.40;;;11.20;99.90;;;;;;4891709;29;20641;-29
2021/12/01 07:16:16;;;;;;;0.80;0.60;;;11.20;99.90;;;;;;4893571;29;20669;-27
2021/12/01 07:18:43;;;;;;;1.70;0.50;;;11.20;99.90;;;;;;4893327;29;20265;-28
2021/12/01 07:21:15;;;;;;;0.73;0.37;;;11.20;99.90;;;;;;4892180;29;20205;-28
2021/12/01 07:23:42;;;;;;;0.70;0.50;;;11.30;99.90;;;;;;4892882;29;20222;-28
2021/12/01 07:26:09;;;;;;;1.27;0.50;;;11.30;99.90;;;;;;4876457;29;20221;-30
2021/12/01 07:28:39;;;;;;;1.70;0.40;;;11.30;99.90;;;;;;4889751;29;20224;-29
2021/12/01 07:31:06;;;;;;;0.73;0.50;;;11.30;99.90;;;;;;4887249;29;20229;-26
2021/12/01 07:33:34;;;;;;;2.10;0.50;;;11.30;99.90;;;;;;4876254;29;20213;-29
2021/12/01 07:36:02;;;;;;;0.57;0.50;;;11.40;99.90;;;;;;4893590;29;20223;-28
2021/12/01 07:38:29;;;;;;;1.30;0.60;;;11.40;99.90;;;;;;4890255;29;20210;-28
2021/12/01 07:40:56;;;;;;;2.47;0.70;;;11.40;99.90;;;;;;4895027;29;20352;-30
2021/12/01 07:43:23;;;;;;;2.03;0.67;;;11.40;99.90;;;;;;4895151;29;20217;-27
2021/12/01 07:45:53;;;;;;;0.73;0.50;;;11.40;99.90;;;;;;4897064;29;20225;-28
2021/12/01 07:48:23;;;;;;;1.03;0.40;;;11.40;99.90;;;;;;4896254;29;20257;-30
2021/12/01 07:50:50;;;;;;;0.77;0.53;;;11.40;99.90;;;;;;4880057;29;20229;-29
2021/12/01 07:53:17;;;;;;;0.97;0.53;;;11.40;99.90;;;;;;4893128;29;20201;-30
2021/12/01 07:55:48;;;;;;;0.43;0.43;;;11.40;99.90;;;;;;4895976;29;20249;-28
2021/12/01 07:58:15;;;;;;;0.70;0.40;;;11.40;99.90;;;;;;4893890;29;20216;-29
2021/12/01 08:00:42;;;;;;;0.80;0.50;;;11.40;99.90;;;;;;4878050;29;20210;-28
2021/12/01 08:03:10;;;;;;;1.07;0.50;;;11.40;99.90;;;;;;4893847;29;20611;-28
2021/12/01 08:05:39;;;;;;;0.70;0.50;;;11.40;99.90;;;;;;4895970;29;20260;-29
2021/12/01 08:08:08;;;;;;;1.23;0.53;;;11.40;99.90;;;;;;4891711;29;20217;-28
2021/12/01 08:10:37;;;;;;;1.60;0.60;;;11.40;99.90;;;;;;4884386;29;20316;-30
2021/12/01 08:13:05;;;;;;;0.90;0.60;;;11.50;99.90;;;;;;4895450;29;20739;-28
2021/12/01 08:15:50;;;;;;;0.83;0.50;;;11.40;99.90;;;;;;4896685;29;20225;-30
2021/12/01 08:18:19;;;;;;;1.37;0.70;;;11.40;99.90;;;;;;4895474;29;20665;-28
2021/12/01 08:20:46;;;;;;;1.67;1.07;;;11.50;99.90;;;;;;4896195;29;20344;-28
2021/12/01 08:23:16;;;;;;;1.53;0.70;;;11.50;99.90;;;;;;4875612;29;20278;-29
2021/12/01 08:25:44;;;;;;;1.53;0.80;;;11.50;99.90;;;;;;4877422;29;20220;-28
2021/12/01 08:28:11;;;;;;;1.93;0.70;;;11.50;99.90;;;;;;4891520;29;20214;-29
2021/12/01 08:30:40;;;;;;;2.13;0.80;;;11.50;99.90;;;;;;4890483;29;20270;-29
2021/12/01 08:33:10;;;;;;;1.80;0.70;;;11.50;99.90;;;;;;4890518;29;20217;-29
2021/12/01 08:35:40;;;;;;;1.27;0.80;;;11.60;99.90;;;;;;4896138;29;20209;-28
2021/12/01 08:38:10;;;;;;;0.77;0.70;;;11.60;99.90;;;;;;4894648;29;20212;-29
2021/12/01 08:40:37;;;;;;;1.70;1.10;;;11.60;99.90;;;;;;4879066;29;20208;-28
2021/12/01 08:43:04;;;;;;;3.23;1.40;;;11.60;99.90;;;;;;4894517;29;20289;-29
2021/12/01 08:45:33;;;;;;;3.70;1.20;;;11.60;99.90;;;;;;4895405;29;20205;-28
2021/12/01 08:48:03;;;;;;;1.93;0.80;;;11.60;99.90;;;;;;4877433;29;20304;-30
2021/12/01 08:50:31;;;;;;;1.30;0.90;;;11.70;99.90;;;;;;4895413;29;20230;-28
2021/12/01 08:52:59;;;;;;;2.30;1.10;;;11.70;99.90;;;;;;4908959;29;20728;-30
2021/12/01 08:55:27;;;;;;;2.07;1.00;;;11.70;99.90;;;;;;4899177;29;20245;-28
2021/12/01 08:58:11;;;;;;;1.27;0.80;;;11.70;99.90;;;;;;4891453;29;20676;-30
2021/12/01 09:00:44;;;;;;;1.53;0.90;;;11.80;99.90;;;;;;4893780;29;20209;-28
2021/12/01 09:03:14;;;;;;;0.50;0.50;;;11.80;99.90;;;;;;4877925;29;20217;-29
2021/12/01 09:05:44;;;;;;;0.93;0.60;;;11.90;99.90;;;;;;4894924;29;20234;-30
2021/12/01 09:08:14;;;;;;;0.53;0.50;;;11.90;99.90;;;;;;4894846;29;20296;-28
2021/12/01 09:10:44;;;;;;;1.80;0.60;;;11.90;99.90;;;;;;4893862;29;20234;-29
2021/12/01 09:13:16;;;;;;;1.73;0.57;;;11.90;99.90;;;;;;4888765;29;20201;-29
2021/12/01 09:15:45;;;;;;;0.90;0.60;;;11.90;99.90;;;;;;4893918;29;20202;-28
2021/12/01 09:18:15;;;;;;;2.30;0.53;;;11.90;99.90;;;;;;4878478;29;20723;-30
2021/12/01 09:20:49;;;;;;;1.47;0.47;;;12.00;99.90;;;;;;4877242;29;20205;-30
2021/12/01 09:23:17;;;;;;;1.17;0.57;;;12.00;99.90;;;;;;4892740;29;20313;-30
2021/12/01 09:25:48;;;;;;;0.60;0.60;;;12.00;99.90;;;;;;4894825;29;20216;-30
2021/12/01 09:28:19;;;;;;;0.80;0.40;;;12.00;99.90;;;;;;4876657;29;20230;-29
2021/12/01 09:30:51;;;;;;;3.33;0.90;;;12.00;99.90;;;;;;4892651;29;20280;-29
2021/12/01 09:33:19;;;;;;;3.07;0.90;;;12.00;99.90;;;;;;4889459;29;20737;-29
2021/12/01 09:35:48;;;;;;;0.63;0.60;;;12.00;99.90;;;;;;4874690;29;20194;-29
2021/12/01 09:38:19;;;;;;;1.47;0.70;;;12.10;99.90;;;;;;4862452;29;20221;-29
2021/12/01 09:40:51;;;;;;;0.93;0.50;;;12.10;99.90;;;;;;4892632;29;20220;-29
2021/12/01 09:43:22;;;;;;;2.40;0.67;;;12.10;99.90;;;;;;4879299;29;20266;-30
2021/12/01 09:45:52;;;;;;;2.07;0.50;;;12.10;99.90;;;;;;4877492;29;20218;-30
2021/12/01 09:48:20;;;;;;;1.23;0.50;;;12.10;99.90;;;;;;4893007;29;20681;-29
2021/12/01 09:51:08;;;;;;;0.50;0.50;;;12.10;99.90;;;;;;4892535;29;20309;-28
2021/12/01 09:53:36;;;;;;;3.03;0.80;;;12.10;99.90;;;;;;4891626;29;20300;-29
2021/12/01 09:56:04;;;;;;;1.33;0.83;;;12.10;99.90;;;;;;4886098;29;20248;-29
2021/12/01 09:58:35;;;;;;;3.40;1.17;;;12.20;99.90;;;;;;4892313;29;20205;-29
2021/12/01 10:01:12;;;;;;;1.30;0.97;;;12.20;99.90;;;;;;4893082;29;20269;-31
2021/12/01 10:03:40;;;;;;;2.30;0.80;;;12.10;99.90;;;;;;4892665;29;20304;-30
2021/12/01 10:06:17;;;;;;;2.33;1.30;;;12.10;99.90;;;;;;4893110;29;20205;-30
2021/12/01 10:08:50;;;;;;;8.57;1.20;;;12.10;99.90;;;;;;4876814;29;20284;-29
2021/12/01 10:11:23;;;;;;;4.53;1.37;;;12.10;99.90;;;;;;4892393;29;20236;-29
2021/12/01 10:13:55;;;;;;;4.10;1.13;;;12.10;99.90;;;;;;4891307;29;20197;-30
2021/12/01 10:16:24;;;;;;;3.27;1.10;;;12.00;99.90;;;;;;4876496;29;21055;-30
2021/12/01 10:18:56;;;;;;;3.03;0.80;;;11.90;99.90;;;;;;4891389;29;20237;-30
2021/12/01 10:21:29;;;;;;;6.33;1.03;;;11.90;99.90;;;;;;4870828;29;20220;-29
2021/12/01 10:24:07;;;;;;;3.33;0.83;;;11.90;99.90;;;;;;4876576;29;20206;-29
2021/12/01 10:26:51;;;;;;;4.03;0.80;;;11.90;99.90;;;;;;4891947;29;20209;-29
2021/12/01 10:29:23;;;;;;;5.57;1.17;;;11.80;99.90;;;;;;4892665;29;20228;-28
2021/12/01 10:32:12;;;;;;;3.07;1.00;;;11.70;99.90;;;;;;4893066;29;20235;-31
2021/12/01 10:34:47;;;;;;;4.80;1.10;;;11.70;99.90;;;;;;4892181;29;20205;-30
2021/12/01 10:37:25;;;;;;;4.40;1.53;;;11.70;99.90;;;;;;4892260;29;20513;-31
2021/12/01 10:40:24;;;;;;;2.97;1.07;;;11.70;99.90;;;;;;4888199;29;20206;-30
2021/12/01 10:42:59;;;;;;;4.70;1.40;;;11.70;99.90;;;;;;4887532;29;20232;-29
2021/12/01 10:45:31;;;;;;;5.10;1.40;;;11.60;99.90;;;;;;4878552;29;20209;-32
2021/12/01 10:47:59;;;;;;;4.53;1.17;;;11.60;99.90;;;;;;4891991;29;20691;-31
2021/12/01 10:50:30;;;;;;;4.73;1.30;;;11.60;99.90;;;;;;4875249;29;20205;-31
2021/12/01 10:53:09;;;;;;;4.73;1.10;;;11.60;99.90;;;;;;4890894;29;20194;-30
2021/12/01 10:55:49;;;;;;;6.47;1.40;;;11.70;99.90;;;;;;4892326;29;20255;-29
2021/12/01 10:58:29;;;;;;;3.03;0.90;;;11.70;99.90;;;;;;4873586;29;20229;-29
2021/12/01 11:00:57;;;;;;;6.00;1.43;;;11.60;99.90;;;;;;4889409;29;20204;-32
2021/12/01 11:03:27;;;;;;;5.93;1.10;;;11.60;99.90;;;;;;4892454;29;20346;-31
2021/12/01 11:05:55;;;;;;;5.77;1.13;;;11.60;99.90;;;;;;4888330;29;20212;-31
2021/12/01 11:08:29;;;;;;;4.20;1.10;;;11.60;99.90;;;;;;4890568;29;20564;-31
2021/12/01 11:11:18;;;;;;;5.17;1.20;;;11.60;99.90;;;;;;4888989;29;20282;-30
2021/12/01 11:14:16;;;;;;;5.00;1.17;;;11.60;99.90;;;;;;4877404;29;20300;-31
2021/12/01 11:16:45;;;;;;;2.10;0.80;;;11.50;99.90;;;;;;4874755;29;20217;-31
2021/12/01 11:19:13;;;;;;;2.70;0.80;;;11.50;99.90;;;;;;4892352;29;20201;-30
2021/12/01 11:21:42;;;;;;;5.10;0.80;;;11.50;99.90;;;;;;4890809;29;20285;-31
2021/12/01 11:24:13;;;;;;;2.80;0.90;;;11.50;99.90;;;;;;4891752;29;20206;-31
2021/12/01 11:26:44;;;;;;;6.43;0.93;;;11.50;99.90;;;;;;4890123;29;20210;-31
2021/12/01 11:29:36;;;;;;;4.97;1.13;;;11.40;99.90;;;;;;4891363;29;20680;-31
2021/12/01 11:32:07;;;;;;;5.60;1.23;;;11.40;99.90;;;;;;4890593;29;20329;-29
2021/12/01 11:34:34;;;;;;;4.27;1.13;;;11.30;99.90;;;;;;4892634;29;20216;-32
2021/12/01 11:37:04;;;;;;;6.50;1.87;;;11.30;99.90;;;;;;4890507;29;20232;-31
2021/12/01 11:39:32;;;;;;;4.23;1.53;;;11.20;99.90;;;;;;4892403;29;20221;-31
2021/12/01 11:41:59;;;;;;;6.17;1.70;;;11.20;99.90;;;;;;4873880;29;20312;-32
2021/12/01 11:44:27;;;;;;;6.83;2.43;;;11.20;99.90;;;;;;4892297;29;20216;-31
2021/12/01 11:46:56;;;;;;;8.33;1.70;;;11.20;99.90;;;;;;4889966;29;20360;-32
2021/12/01 11:49:28;;;;;;;4.17;1.70;;;11.20;99.90;;;;;;4874736;29;20601;-31
2021/12/01 11:51:59;;;;;;;5.10;1.67;;;11.10;99.90;;;;;;4891124;29;20225;-31
2021/12/01 11:54:28;;;;;;;5.13;1.60;;;11.20;99.90;;;;;;4888897;29;20691;-31
2021/12/01 11:57:03;;;;;;;5.50;1.80;;;11.10;99.90;;;;;;4887541;29;20599;-29
2021/12/01 11:59:38;;;;;;;5.60;1.57;;;11.20;99.90;;;;;;4888734;29;20205;-31
2021/12/01 12:02:22;;;;;;;5.97;2.00;;;11.20;99.90;;;;;;4895067;29;20197;-31
2021/12/01 12:04:54;;;;;;;4.40;1.53;;;11.20;99.90;;;;;;4890385;29;20220;-30
2021/12/01 12:07:28;;;;;;;5.30;1.93;;;11.20;99.90;;;;;;4900208;29;20711;-31
2021/12/01 12:10:17;;;;;;;6.97;1.80;;;11.20;99.90;;;;;;4882289;29;20214;-29
2021/12/01 12:13:03;;;;;;;3.67;1.40;;;11.20;99.90;;;;;;4890939;29;20225;-32
2021/12/01 12:15:47;;;;;;;6.10;1.50;;;11.20;99.90;;;;;;4892219;29;20269;-31
2021/12/01 12:18:34;;;;;;;6.57;1.40;;;11.30;99.90;;;;;;4890530;29;20744;-30
2021/12/01 12:21:32;;;;;;;3.73;1.20;;;11.30;99.90;;;;;;4887368;29;20208;-31
2021/12/01 12:24:10;;;;;;;4.50;1.33;;;11.20;99.90;;;;;;4890374;29;20241;-31
2021/12/01 12:26:43;;;;;;;3.07;0.90;;;11.20;99.90;;;;;;4893986;29;20244;-30
2021/12/01 12:29:13;;;;;;;7.80;1.10;;;11.20;99.90;;;;;;4885957;29;20194;-31
2021/12/01 12:31:45;;;;;;;3.23;0.90;;;11.20;99.90;;;;;;4892600;29;20221;-31
2021/12/01 12:34:25;;;;;;;2.93;0.80;;;11.20;99.90;;;;;;4893977;29;21051;-31
2021/12/01 12:36:58;;;;;;;2.10;0.80;;;11.30;99.90;;;;;;4894980;29;20205;-31
2021/12/01 12:39:32;;;;;;;1.67;0.63;;;11.20;99.90;;;;;;4893634;29;20241;-30
2021/12/01 12:42:09;;;;;;;3.50;1.00;;;11.30;99.90;;;;;;4877291;29;20225;-32
2021/12/01 12:44:48;;;;;;;10.17;1.10;;;11.20;99.90;;;;;;4895751;29;20194;-32
2021/12/01 12:47:37;;;;;;;2.47;0.60;;;11.20;99.90;;;;;;4876596;29;20202;-30
2021/12/01 12:50:22;;;;;;;4.43;0.90;;;11.20;99.90;;;;;;4885287;29;20305;-31
2021/12/01 12:53:16;;;;;;;2.80;0.93;;;11.20;99.90;;;;;;4893457;29;20233;-32
2021/12/01 12:55:44;;;;;;;6.97;1.00;;;11.30;99.90;;;;;;4878923;29;20380;-32
2021/12/01 12:58:14;;;;;;;2.77;0.80;;;11.20;99.90;;;;;;4875459;29;20305;-31
2021/12/01 13:00:53;;;;;;;3.50;1.10;;;11.30;99.90;;;;;;4881120;29;20217;-31
2021/12/01 13:03:24;;;;;;;5.03;1.10;;;11.20;99.90;;;;;;4876160;29;20554;-32
2021/12/01 13:05:54;;;;;;;3.67;0.80;;;11.20;99.90;;;;;;4895006;29;20205;-31
2021/12/01 13:08:38;;;;;;;3.57;0.90;;;11.20;99.90;;;;;;4894327;29;20212;-32
2021/12/01 13:11:20;;;;;;;7.00;1.40;;;11.20;99.90;;;;;;4893487;29;20305;-32